sensor_id;sensor_type;location;lat;lon;timestamp;temperature;humidity
17423;DHT22;8829;47.932;7.810;2023-02-25T00:01:29;6.50;99.90
17423;DHT22;8829;47.932;7.810;2023-02-25T00:03:59;6.40;99.90
17423;DHT22;8829;47.932;7.810;2023-02-25T00:06:26;6.30;99.90
17423;DHT22;8829;47.932;7.810;2023-02-25T00:08:53;6.20;99.90
17423;DHT22;8829;47.932;7.810;2023-02-25T00:11:22;5.90;99.90
17423;DHT22;8829;47.932;7.810;2023-02-25T00:13:49;6.00;99.90
17423;DHT22;8829;47.932;7.810;2023-02-25T00:16:17;6.20;99.90
17423;DHT22;8829;47.932;7.810;2023-02-25T00:18:44;6.20;99.90
17423;DHT22;8829;47.932;7.810;2023-02-25T00:21:14;6.10;99.90
17423;DHT22;8829;47.932;7.810;2023-02-25T00:23:42;5.90;99.90
17423;DHT22;8829;47.932;7.810;2023-02-25T00:26:09;5.90;99.90
17423;DHT22;8829;47.932;7.810;2023-02-25T00:28:37;5.80;99.90
17423;DHT22;8829;47.932;7.810;2023-02-25T00:31:07;5.70;99.90
17423;DHT22;8829;47.932;7.810;2023-02-25T00:33:33;5.70;99.90
17423;DHT22;8829;47.932;7.810;2023-02-25T00:36:03;5.70;99.90
17423;DHT22;8829;47.932;7.810;2023-02-25T00:38:31;5.70;99.90
17423;DHT22;8829;47.932;7.810;2023-02-25T00:41:03;5.50;99.90
17423;DHT22;8829;47.932;7.810;2023-02-25T00:43:33;5.30;99.90
17423;DHT22;8829;47.932;7.810;2023-02-25T00:46:00;5.40;99.90
17423;DHT22;8829;47.932;7.810;2023-02-25T00:48:26;5.50;99.90
17423;DHT22;8829;47.932;7.810;2023-02-25T00:50:53;5.50;99.90
17423;DHT22;8829;47.932;7.810;2023-02-25T00:53:20;5.40;99.90
17423;DHT22;8829;47.932;7.810;2023-02-25T00:55:57;5.40;99.90
17423;DHT22;8829;47.932;7.810;2023-02-25T00:58:24;5.30;99.90
17423;DHT22;8829;47.932;7.810;2023-02-25T01:00:51;5.40;99.90
17423;DHT22;8829;47.932;7.810;2023-02-25T01:03:18;5.40;99.90
17423;DHT22;8829;47.932;7.810;2023-02-25T01:05:45;5.30;99.90
17423;DHT22;8829;47.932;7.810;2023-02-25T01:08:14;5.30;99.90
17423;DHT22;8829;47.932;7.810;2023-02-25T01:10:41;5.40;99.90
17423;DHT22;8829;47.932;7.810;2023-02-25T01:13:09;5.40;99.90
17423;DHT22;8829;47.932;7.810;2023-02-25T01:15:36;5.40;99.90
17423;DHT22;8829;47.932;7.810;2023-02-25T01:18:03;5.50;99.90
17423;DHT22;8829;47.932;7.810;2023-02-25T01:20:29;5.50;99.90
17423;DHT22;8829;47.932;7.810;2023-02-25T01:22:56;5.70;99.90
17423;DHT22;8829;47.932;7.810;2023-02-25T01:25:23;5.80;99.90
17423;DHT22;8829;47.932;7.810;2023-02-25T01:27:53;6.00;99.90
17423;DHT22;8829;47.932;7.810;2023-02-25T01:30:22;6.10;99.90
17423;DHT22;8829;47.932;7.810;2023-02-25T01:32:48;6.20;99.90
17423;DHT22;8829;47.932;7.810;2023-02-25T01:35:15;6.30;99.90
17423;DHT22;8829;47.932;7.810;2023-02-25T01:37:42;6.40;99.90
17423;DHT22;8829;47.932;7.810;2023-02-25T01:40:13;6.50;99.90
17423;DHT22;8829;47.932;7.810;2023-02-25T01:42:41;6.50;99.90
17423;DHT22;8829;47.932;7.810;2023-02-25T01:45:36;6.60;99.90
17423;DHT22;8829;47.932;7.810;2023-02-25T01:48:10;6.60;99.90
17423;DHT22;8829;47.932;7.810;2023-02-25T01:50:43;6.30;99.90
17423;DHT22;8829;47.932;7.810;2023-02-25T01:53:11;6.20;99.90
17423;DHT22;8829;47.932;7.810;2023-02-25T01:55:40;6.30;99.90
17423;DHT22;8829;47.932;7.810;2023-02-25T01:58:08;6.30;99.90
17423;DHT22;8829;47.932;7.810;2023-02-25T02:00:37;6.30;99.90
17423;DHT22;8829;47.932;7.810;2023-02-25T02:03:05;6.10;99.90
17423;DHT22;8829;47.932;7.810;2023-02-25T02:05:48;5.90;99.90
17423;DHT22;8829;47.932;7.810;2023-02-25T02:08:16;5.70;99.90
17423;DHT22;8829;47.932;7.810;2023-02-25T02:10:43;5.50;99.90
17423;DHT22;8829;47.932;7.810;2023-02-25T02:13:10;5.40;99.90
17423;DHT22;8829;47.932;7.810;2023-02-25T02:15:40;5.50;99.90
17423;DHT22;8829;47.932;7.810;2023-02-25T02:18:09;5.40;99.90
17423;DHT22;8829;47.932;7.810;2023-02-25T02:20:43;5.30;99.90
17423;DHT22;8829;47.932;7.810;2023-02-25T02:23:28;5.30;99.90
17423;DHT22;8829;47.932;7.810;2023-02-25T02:26:33;5.30;99.90
17423;DHT22;8829;47.932;7.810;2023-02-25T02:29:27;5.30;99.90
17423;DHT22;8829;47.932;7.810;2023-02-25T02:32:09;5.30;99.90
17423;DHT22;8829;47.932;7.810;2023-02-25T02:34:45;5.10;99.90
17423;DHT22;8829;47.932;7.810;2023-02-25T02:37:25;5.10;99.90
17423;DHT22;8829;47.932;7.810;2023-02-25T02:39:59;5.00;99.90
17423;DHT22;8829;47.932;7.810;2023-02-25T02:42:36;5.00;99.90
17423;DHT22;8829;47.932;7.810;2023-02-25T02:45:10;5.00;99.90
17423;DHT22;8829;47.932;7.810;2023-02-25T02:47:42;5.00;99.90
17423;DHT22;8829;47.932;7.810;2023-02-25T02:50:14;4.90;99.90
17423;DHT22;8829;47.932;7.810;2023-02-25T02:52:47;4.90;99.90
17423;DHT22;8829;47.932;7.810;2023-02-25T02:55:18;4.90;99.90
17423;DHT22;8829;47.932;7.810;2023-02-25T02:57:48;4.90;99.90
17423;DHT22;8829;47.932;7.810;2023-02-25T03:00:19;4.90;99.90
17423;DHT22;8829;47.932;7.810;2023-02-25T03:02:56;4.90;99.90
17423;DHT22;8829;47.932;7.810;2023-02-25T03:05:26;4.90;99.90
17423;DHT22;8829;47.932;7.810;2023-02-25T03:08:02;4.80;99.90
17423;DHT22;8829;47.932;7.810;2023-02-25T03:10:32;4.80;99.90
17423;DHT22;8829;47.932;7.810;2023-02-25T03:12:59;4.80;99.90
17423;DHT22;8829;47.932;7.810;2023-02-25T03:15:26;4.80;99.90
17423;DHT22;8829;47.932;7.810;2023-02-25T03:17:59;4.80;99.90
17423;DHT22;8829;47.932;7.810;2023-02-25T03:20:31;4.80;99.90
17423;DHT22;8829;47.932;7.810;2023-02-25T03:23:04;4.80;99.90
17423;DHT22;8829;47.932;7.810;2023-02-25T03:25:35;4.80;99.90
17423;DHT22;8829;47.932;7.810;2023-02-25T03:28:21;4.80;99.90
17423;DHT22;8829;47.932;7.810;2023-02-25T03:30:55;4.80;99.90
17423;DHT22;8829;47.932;7.810;2023-02-25T03:33:28;4.70;99.90
17423;DHT22;8829;47.932;7.810;2023-02-25T03:35:57;4.60;99.90
17423;DHT22;8829;47.932;7.810;2023-02-25T03:38:27;4.70;99.90
17423;DHT22;8829;47.932;7.810;2023-02-25T03:40:56;4.60;99.90
17423;DHT22;8829;47.932;7.810;2023-02-25T03:43:29;4.50;99.90
17423;DHT22;8829;47.932;7.810;2023-02-25T03:45:57;4.50;99.90
17423;DHT22;8829;47.932;7.810;2023-02-25T03:48:26;4.60;99.90
17423;DHT22;8829;47.932;7.810;2023-02-25T03:50:57;4.60;99.90
17423;DHT22;8829;47.932;7.810;2023-02-25T03:53:25;4.60;99.90
17423;DHT22;8829;47.932;7.810;2023-02-25T03:55:52;4.60;99.90
17423;DHT22;8829;47.932;7.810;2023-02-25T03:58:19;4.50;99.90
17423;DHT22;8829;47.932;7.810;2023-02-25T04:00:47;4.50;99.90
17423;DHT22;8829;47.932;7.810;2023-02-25T04:03:16;4.50;99.90
17423;DHT22;8829;47.932;7.810;2023-02-25T04:05:44;4.60;99.90
17423;DHT22;8829;47.932;7.810;2023-02-25T04:08:11;4.60;99.90
17423;DHT22;8829;47.932;7.810;2023-02-25T04:10:40;4.50;99.90
17423;DHT22;8829;47.932;7.810;2023-02-25T04:13:08;4.50;99.90
17423;DHT22;8829;47.932;7.810;2023-02-25T04:15:35;4.50;99.90
17423;DHT22;8829;47.932;7.810;2023-02-25T04:18:01;4.50;99.90
17423;DHT22;8829;47.932;7.810;2023-02-25T04:20:29;4.50;99.90
17423;DHT22;8829;47.932;7.810;2023-02-25T04:22:58;4.50;99.90
17423;DHT22;8829;47.932;7.810;2023-02-25T04:25:24;4.50;99.90
17423;DHT22;8829;47.932;7.810;2023-02-25T04:27:51;4.50;99.90
17423;DHT22;8829;47.932;7.810;2023-02-25T04:30:18;4.50;99.90
17423;DHT22;8829;47.932;7.810;2023-02-25T04:32:45;4.40;99.90
17423;DHT22;8829;47.932;7.810;2023-02-25T04:35:12;4.30;99.90
17423;DHT22;8829;47.932;7.810;2023-02-25T04:37:40;4.30;99.90
17423;DHT22;8829;47.932;7.810;2023-02-25T04:40:12;4.30;99.90
17423;DHT22;8829;47.932;7.810;2023-02-25T04:42:40;4.30;99.90
17423;DHT22;8829;47.932;7.810;2023-02-25T04:45:09;4.30;99.90
17423;DHT22;8829;47.932;7.810;2023-02-25T04:47:36;4.30;99.90
17423;DHT22;8829;47.932;7.810;2023-02-25T04:50:04;4.30;99.90
17423;DHT22;8829;47.932;7.810;2023-02-25T04:52:31;4.20;99.90
17423;DHT22;8829;47.932;7.810;2023-02-25T04:54:59;4.20;99.90
17423;DHT22;8829;47.932;7.810;2023-02-25T04:57:27;4.20;99.90
17423;DHT22;8829;47.932;7.810;2023-02-25T04:59:53;4.20;99.90
17423;DHT22;8829;47.932;7.810;2023-02-25T05:02:20;4.10;99.90
17423;DHT22;8829;47.932;7.810;2023-02-25T05:04:47;4.20;99.90
17423;DHT22;8829;47.932;7.810;2023-02-25T05:07:14;4.20;99.90
17423;DHT22;8829;47.932;7.810;2023-02-25T05:09:41;4.10;99.90
17423;DHT22;8829;47.932;7.810;2023-02-25T05:12:08;4.10;99.90
17423;DHT22;8829;47.932;7.810;2023-02-25T05:14:37;4.20;99.90
17423;DHT22;8829;47.932;7.810;2023-02-25T05:17:03;4.10;99.90
17423;DHT22;8829;47.932;7.810;2023-02-25T05:19:30;4.10;99.90
17423;DHT22;8829;47.932;7.810;2023-02-25T05:21:57;4.10;99.90
17423;DHT22;8829;47.932;7.810;2023-02-25T05:24:24;4.10;99.90
17423;DHT22;8829;47.932;7.810;2023-02-25T05:26:51;4.20;99.90
17423;DHT22;8829;47.932;7.810;2023-02-25T05:29:18;4.10;99.90
17423;DHT22;8829;47.932;7.810;2023-02-25T05:31:46;4.00;99.90
17423;DHT22;8829;47.932;7.810;2023-02-25T05:34:15;4.00;99.90
17423;DHT22;8829;47.932;7.810;2023-02-25T05:36:41;4.00;99.90
17423;DHT22;8829;47.932;7.810;2023-02-25T05:39:12;4.00;99.90
17423;DHT22;8829;47.932;7.810;2023-02-25T05:41:39;3.90;99.90
17423;DHT22;8829;47.932;7.810;2023-02-25T05:44:06;4.00;99.90
17423;DHT22;8829;47.932;7.810;2023-02-25T05:46:33;3.80;99.90
17423;DHT22;8829;47.932;7.810;2023-02-25T05:49:01;3.80;99.90
17423;DHT22;8829;47.932;7.810;2023-02-25T05:51:28;3.80;99.90
17423;DHT22;8829;47.932;7.810;2023-02-25T05:53:55;3.80;99.90
17423;DHT22;8829;47.932;7.810;2023-02-25T05:56:23;3.90;99.90
17423;DHT22;8829;47.932;7.810;2023-02-25T05:58:52;3.90;99.90
17423;DHT22;8829;47.932;7.810;2023-02-25T06:01:22;3.80;99.90
17423;DHT22;8829;47.932;7.810;2023-02-25T06:03:49;3.80;99.90
17423;DHT22;8829;47.932;7.810;2023-02-25T06:06:19;3.80;99.90
17423;DHT22;8829;47.932;7.810;2023-02-25T06:08:48;3.80;99.90
17423;DHT22;8829;47.932;7.810;2023-02-25T06:11:17;3.90;99.90
17423;DHT22;8829;47.932;7.810;2023-02-25T06:13:46;3.80;99.90
17423;DHT22;8829;47.932;7.810;2023-02-25T06:16:13;3.90;99.90
17423;DHT22;8829;47.932;7.810;2023-02-25T06:18:40;3.90;99.90
17423;DHT22;8829;47.932;7.810;2023-02-25T06:21:08;3.90;99.90
17423;DHT22;8829;47.932;7.810;2023-02-25T06:23:38;3.90;99.90
17423;DHT22;8829;47.932;7.810;2023-02-25T06:26:06;3.90;99.90
17423;DHT22;8829;47.932;7.810;2023-02-25T06:28:33;3.90;99.90
17423;DHT22;8829;47.932;7.810;2023-02-25T06:31:01;3.90;99.90
17423;DHT22;8829;47.932;7.810;2023-02-25T06:33:28;4.00;99.90
17423;DHT22;8829;47.932;7.810;2023-02-25T06:35:55;3.90;99.90
17423;DHT22;8829;47.932;7.810;2023-02-25T06:38:22;3.80;99.90
17423;DHT22;8829;47.932;7.810;2023-02-25T06:40:50;3.90;99.90
17423;DHT22;8829;47.932;7.810;2023-02-25T06:43:17;4.00;99.90
17423;DHT22;8829;47.932;7.810;2023-02-25T06:45:44;4.00;99.90
17423;DHT22;8829;47.932;7.810;2023-02-25T06:48:10;3.90;99.90
17423;DHT22;8829;47.932;7.810;2023-02-25T06:50:38;3.90;99.90
17423;DHT22;8829;47.932;7.810;2023-02-25T06:53:05;3.90;99.90
17423;DHT22;8829;47.932;7.810;2023-02-25T06:55:32;3.90;99.90
17423;DHT22;8829;47.932;7.810;2023-02-25T06:58:00;3.90;99.90
17423;DHT22;8829;47.932;7.810;2023-02-25T07:00:27;3.90;99.90
17423;DHT22;8829;47.932;7.810;2023-02-25T07:02:53;3.90;99.90
17423;DHT22;8829;47.932;7.810;2023-02-25T07:05:20;3.90;99.90
17423;DHT22;8829;47.932;7.810;2023-02-25T07:07:47;3.80;99.90
17423;DHT22;8829;47.932;7.810;2023-02-25T07:10:13;3.90;99.90
17423;DHT22;8829;47.932;7.810;2023-02-25T07:12:40;3.80;99.90
17423;DHT22;8829;47.932;7.810;2023-02-25T07:15:09;3.90;99.90
17423;DHT22;8829;47.932;7.810;2023-02-25T07:17:36;3.90;99.90
17423;DHT22;8829;47.932;7.810;2023-02-25T07:20:03;3.80;99.90
17423;DHT22;8829;47.932;7.810;2023-02-25T07:22:30;3.80;99.90
17423;DHT22;8829;47.932;7.810;2023-02-25T07:24:57;3.80;99.90
17423;DHT22;8829;47.932;7.810;2023-02-25T07:27:23;3.80;99.90
17423;DHT22;8829;47.932;7.810;2023-02-25T07:29:50;3.80;99.90
17423;DHT22;8829;47.932;7.810;2023-02-25T07:32:18;3.90;99.90
17423;DHT22;8829;47.932;7.810;2023-02-25T07:34:45;3.90;99.90
17423;DHT22;8829;47.932;7.810;2023-02-25T07:37:11;3.90;99.90
17423;DHT22;8829;47.932;7.810;2023-02-25T07:39:38;3.80;99.90
17423;DHT22;8829;47.932;7.810;2023-02-25T07:42:05;3.80;99.90
17423;DHT22;8829;47.932;7.810;2023-02-25T07:44:31;3.90;99.90
17423;DHT22;8829;47.932;7.810;2023-02-25T07:47:00;3.90;99.90
17423;DHT22;8829;47.932;7.810;2023-02-25T07:49:30;3.90;99.90
17423;DHT22;8829;47.932;7.810;2023-02-25T07:51:57;3.90;99.90
17423;DHT22;8829;47.932;7.810;2023-02-25T07:54:24;3.80;99.90
17423;DHT22;8829;47.932;7.810;2023-02-25T07:56:51;3.80;99.90
17423;DHT22;8829;47.932;7.810;2023-02-25T07:59:19;3.90;99.90
17423;DHT22;8829;47.932;7.810;2023-02-25T08:01:48;3.90;99.90
17423;DHT22;8829;47.932;7.810;2023-02-25T08:04:14;3.90;99.90
17423;DHT22;8829;47.932;7.810;2023-02-25T08:06:42;4.00;99.90
17423;DHT22;8829;47.932;7.810;2023-02-25T08:09:11;4.10;99.90
17423;DHT22;8829;47.932;7.810;2023-02-25T08:11:39;4.20;99.90
17423;DHT22;8829;47.932;7.810;2023-02-25T08:14:06;4.30;99.90
17423;DHT22;8829;47.932;7.810;2023-02-25T08:16:32;4.30;99.90
17423;DHT22;8829;47.932;7.810;2023-02-25T08:18:59;4.10;99.90
17423;DHT22;8829;47.932;7.810;2023-02-25T08:21:28;4.10;99.90
17423;DHT22;8829;47.932;7.810;2023-02-25T08:23:57;4.10;99.90
17423;DHT22;8829;47.932;7.810;2023-02-25T08:26:25;4.10;99.90
17423;DHT22;8829;47.932;7.810;2023-02-25T08:28:52;4.10;99.90
17423;DHT22;8829;47.932;7.810;2023-02-25T08:31:19;4.20;99.90
17423;DHT22;8829;47.932;7.810;2023-02-25T08:33:47;4.20;99.90
17423;DHT22;8829;47.932;7.810;2023-02-25T08:36:19;4.20;99.90
17423;DHT22;8829;47.932;7.810;2023-02-25T08:38:46;4.40;99.90
17423;DHT22;8829;47.932;7.810;2023-02-25T08:41:14;4.40;99.90
17423;DHT22;8829;47.932;7.810;2023-02-25T08:43:41;4.30;99.90
17423;DHT22;8829;47.932;7.810;2023-02-25T08:46:08;4.30;99.90
17423;DHT22;8829;47.932;7.810;2023-02-25T08:48:35;4.30;99.90
17423;DHT22;8829;47.932;7.810;2023-02-25T08:51:06;4.40;99.90
17423;DHT22;8829;47.932;7.810;2023-02-25T08:53:33;4.50;99.90
17423;DHT22;8829;47.932;7.810;2023-02-25T08:56:02;4.40;99.90
17423;DHT22;8829;47.932;7.810;2023-02-25T08:58:30;4.40;99.90
17423;DHT22;8829;47.932;7.810;2023-02-25T09:00:57;4.20;99.90
17423;DHT22;8829;47.932;7.810;2023-02-25T09:03:24;4.20;99.90
17423;DHT22;8829;47.932;7.810;2023-02-25T09:05:51;4.10;99.90
17423;DHT22;8829;47.932;7.810;2023-02-25T09:08:18;4.20;99.90
17423;DHT22;8829;47.932;7.810;2023-02-25T09:10:45;4.10;99.90
17423;DHT22;8829;47.932;7.810;2023-02-25T09:13:13;4.20;99.90
17423;DHT22;8829;47.932;7.810;2023-02-25T09:15:41;4.20;99.90
17423;DHT22;8829;47.932;7.810;2023-02-25T09:18:07;4.30;99.90
17423;DHT22;8829;47.932;7.810;2023-02-25T09:20:36;4.30;99.90
17423;DHT22;8829;47.932;7.810;2023-02-25T09:23:02;4.30;99.90
17423;DHT22;8829;47.932;7.810;2023-02-25T09:25:29;4.40;99.90
17423;DHT22;8829;47.932;7.810;2023-02-25T09:27:56;4.40;99.90
17423;DHT22;8829;47.932;7.810;2023-02-25T09:30:22;4.40;99.90
17423;DHT22;8829;47.932;7.810;2023-02-25T09:32:50;4.60;99.90
17423;DHT22;8829;47.932;7.810;2023-02-25T09:35:17;4.50;99.90
17423;DHT22;8829;47.932;7.810;2023-02-25T09:37:44;4.50;99.90
17423;DHT22;8829;47.932;7.810;2023-02-25T09:40:14;4.50;99.90
17423;DHT22;8829;47.932;7.810;2023-02-25T09:42:54;4.60;99.90
17423;DHT22;8829;47.932;7.810;2023-02-25T09:45:26;4.80;99.90
17423;DHT22;8829;47.932;7.810;2023-02-25T09:47:57;4.60;99.90
17423;DHT22;8829;47.932;7.810;2023-02-25T09:50:27;4.60;99.90
17423;DHT22;8829;47.932;7.810;2023-02-25T09:53:03;4.60;99.90
17423;DHT22;8829;47.932;7.810;2023-02-25T09:55:33;4.50;99.90
17423;DHT22;8829;47.932;7.810;2023-02-25T09:58:05;4.50;99.90
17423;DHT22;8829;47.932;7.810;2023-02-25T10:00:38;4.60;99.90
17423;DHT22;8829;47.932;7.810;2023-02-25T10:03:14;4.50;99.90
17423;DHT22;8829;47.932;7.810;2023-02-25T10:05:47;4.60;99.90
17423;DHT22;8829;47.932;7.810;2023-02-25T10:08:19;4.70;99.90
17423;DHT22;8829;47.932;7.810;2023-02-25T10:10:54;4.60;99.90
17423;DHT22;8829;47.932;7.810;2023-02-25T10:13:30;4.70;99.90
17423;DHT22;8829;47.932;7.810;2023-02-25T10:16:04;4.60;99.90
17423;DHT22;8829;47.932;7.810;2023-02-25T10:18:48;4.70;99.90
17423;DHT22;8829;47.932;7.810;2023-02-25T10:21:25;4.60;99.90
17423;DHT22;8829;47.932;7.810;2023-02-25T10:24:03;4.70;99.90
17423;DHT22;8829;47.932;7.810;2023-02-25T10:26:38;4.90;99.90
17423;DHT22;8829;47.932;7.810;2023-02-25T10:29:07;5.30;99.90
17423;DHT22;8829;47.932;7.810;2023-02-25T10:31:35;5.30;99.90
17423;DHT22;8829;47.932;7.810;2023-02-25T10:34:19;5.40;99.90
17423;DHT22;8829;47.932;7.810;2023-02-25T10:36:51;5.40;99.90
17423;DHT22;8829;47.932;7.810;2023-02-25T10:39:19;5.40;99.90
17423;DHT22;8829;47.932;7.810;2023-02-25T10:41:45;5.60;99.90
17423;DHT22;8829;47.932;7.810;2023-02-25T10:44:14;5.70;99.90
17423;DHT22;8829;47.932;7.810;2023-02-25T10:46:46;5.60;99.90
17423;DHT22;8829;47.932;7.810;2023-02-25T10:49:16;5.60;99.90
17423;DHT22;8829;47.932;7.810;2023-02-25T10:51:59;5.60;99.90
17423;DHT22;8829;47.932;7.810;2023-02-25T10:54:28;5.80;99.90
17423;DHT22;8829;47.932;7.810;2023-02-25T10:56:55;5.70;99.90
17423;DHT22;8829;47.932;7.810;2023-02-25T10:59:33;5.40;99.90
17423;DHT22;8829;47.932;7.810;2023-02-25T11:02:02;5.50;99.90
17423;DHT22;8829;47.932;7.810;2023-02-25T11:04:36;5.50;99.90
17423;DHT22;8829;47.932;7.810;2023-02-25T11:07:22;5.50;99.90
17423;DHT22;8829;47.932;7.810;2023-02-25T11:10:05;5.50;99.90
17423;DHT22;8829;47.932;7.810;2023-02-25T11:12:40;5.60;99.90
17423;DHT22;8829;47.932;7.810;2023-02-25T11:15:29;5.90;99.90
17423;DHT22;8829;47.932;7.810;2023-02-25T11:18:02;5.80;99.90
17423;DHT22;8829;47.932;7.810;2023-02-25T11:20:31;5.70;99.90
17423;DHT22;8829;47.932;7.810;2023-02-25T11:22:59;5.70;99.90
17423;DHT22;8829;47.932;7.810;2023-02-25T11:25:35;5.60;99.90
17423;DHT22;8829;47.932;7.810;2023-02-25T11:28:04;5.60;99.90
17423;DHT22;8829;47.932;7.810;2023-02-25T11:30:35;5.60;99.90
17423;DHT22;8829;47.932;7.810;2023-02-25T11:33:07;5.70;99.90
17423;DHT22;8829;47.932;7.810;2023-02-25T11:35:39;5.40;99.90
17423;DHT22;8829;47.932;7.810;2023-02-25T11:38:24;5.30;99.90
17423;DHT22;8829;47.932;7.810;2023-02-25T11:40:52;5.20;99.90
17423;DHT22;8829;47.932;7.810;2023-02-25T11:43:20;5.20;99.90
17423;DHT22;8829;47.932;7.810;2023-02-25T11:45:53;5.40;99.90
17423;DHT22;8829;47.932;7.810;2023-02-25T11:48:23;5.40;99.90
17423;DHT22;8829;47.932;7.810;2023-02-25T11:50:56;5.20;99.90
17423;DHT22;8829;47.932;7.810;2023-02-25T11:53:36;5.30;99.90
17423;DHT22;8829;47.932;7.810;2023-02-25T11:56:10;5.20;99.90
17423;DHT22;8829;47.932;7.810;2023-02-25T11:58:47;5.20;99.90
17423;DHT22;8829;47.932;7.810;2023-02-25T12:01:23;5.10;99.90
17423;DHT22;8829;47.932;7.810;2023-02-25T12:04:13;5.30;99.90
17423;DHT22;8829;47.932;7.810;2023-02-25T12:06:59;5.30;99.90
17423;DHT22;8829;47.932;7.810;2023-02-25T12:09:54;5.70;99.90
17423;DHT22;8829;47.932;7.810;2023-02-25T12:15:42;6.30;99.90
17423;DHT22;8829;47.932;7.810;2023-02-25T12:18:40;6.10;99.90
17423;DHT22;8829;47.932;7.810;2023-02-25T12:22:10;6.10;99.90
17423;DHT22;8829;47.932;7.810;2023-02-25T12:24:51;5.90;99.90
17423;DHT22;8829;47.932;7.810;2023-02-25T12:28:02;6.00;99.90
17423;DHT22;8829;47.932;7.810;2023-02-25T12:30:42;5.90;99.90
17423;DHT22;8829;47.932;7.810;2023-02-25T12:33:31;5.90;99.90
17423;DHT22;8829;47.932;7.810;2023-02-25T12:36:23;5.50;99.90
17423;DHT22;8829;47.932;7.810;2023-02-25T12:39:14;5.70;99.90
17423;DHT22;8829;47.932;7.810;2023-02-25T12:41:46;5.90;99.90
17423;DHT22;8829;47.932;7.810;2023-02-25T12:47:23;5.50;99.90
17423;DHT22;8829;47.932;7.810;2023-02-25T12:52:47;5.60;99.90
17423;DHT22;8829;47.932;7.810;2023-02-25T12:55:50;5.50;99.90
17423;DHT22;8829;47.932;7.810;2023-02-25T12:58:26;5.50;99.90
17423;DHT22;8829;47.932;7.810;2023-02-25T13:01:25;5.70;99.90
17423;DHT22;8829;47.932;7.810;2023-02-25T13:04:12;5.90;99.90
17423;DHT22;8829;47.932;7.810;2023-02-25T13:06:58;6.00;99.90
17423;DHT22;8829;47.932;7.810;2023-02-25T13:12:31;4.90;99.90
17423;DHT22;8829;47.932;7.810;2023-02-25T13:15:09;4.70;99.90
17423;DHT22;8829;47.932;7.810;2023-02-25T13:18:01;4.60;99.90
17423;DHT22;8829;47.932;7.810;2023-02-25T13:20:55;4.60;99.90
17423;DHT22;8829;47.932;7.810;2023-02-25T13:23:42;4.70;99.90
17423;DHT22;8829;47.932;7.810;2023-02-25T13:26:23;4.80;99.90
17423;DHT22;8829;47.932;7.810;2023-02-25T13:29:13;4.90;99.90
17423;DHT22;8829;47.932;7.810;2023-02-25T13:31:48;5.00;99.90
17423;DHT22;8829;47.932;7.810;2023-02-25T13:34:23;4.90;99.90
17423;DHT22;8829;47.932;7.810;2023-02-25T13:37:05;5.00;99.90
17423;DHT22;8829;47.932;7.810;2023-02-25T13:39:49;5.10;99.90
17423;DHT22;8829;47.932;7.810;2023-02-25T13:42:29;4.90;99.90
17423;DHT22;8829;47.932;7.810;2023-02-25T13:45:27;4.80;99.90
17423;DHT22;8829;47.932;7.810;2023-02-25T13:48:17;4.80;99.90
17423;DHT22;8829;47.932;7.810;2023-02-25T13:50:54;4.80;99.90
17423;DHT22;8829;47.932;7.810;2023-02-25T13:53:37;4.80;99.90
17423;DHT22;8829;47.932;7.810;2023-02-25T13:56:40;4.80;99.90
17423;DHT22;8829;47.932;7.810;2023-02-25T13:59:16;4.60;99.90
17423;DHT22;8829;47.932;7.810;2023-02-25T14:01:55;4.50;99.90
17423;DHT22;8829;47.932;7.810;2023-02-25T14:04:43;4.60;99.90
17423;DHT22;8829;47.932;7.810;2023-02-25T14:10:18;4.50;99.90
17423;DHT22;8829;47.932;7.810;2023-02-25T14:12:58;4.50;99.90
17423;DHT22;8829;47.932;7.810;2023-02-25T14:15:42;4.50;99.90
17423;DHT22;8829;47.932;7.810;2023-02-25T14:18:40;4.60;99.90
17423;DHT22;8829;47.932;7.810;2023-02-25T14:21:29;4.60;99.90
17423;DHT22;8829;47.932;7.810;2023-02-25T14:24:03;4.70;99.90
17423;DHT22;8829;47.932;7.810;2023-02-25T14:26:37;4.80;99.90
17423;DHT22;8829;47.932;7.810;2023-02-25T14:29:16;4.80;99.90
17423;DHT22;8829;47.932;7.810;2023-02-25T14:31:57;4.80;99.90
17423;DHT22;8829;47.932;7.810;2023-02-25T14:34:44;4.80;99.90
17423;DHT22;8829;47.932;7.810;2023-02-25T14:37:33;4.80;99.90
17423;DHT22;8829;47.932;7.810;2023-02-25T14:40:11;4.90;99.90
17423;DHT22;8829;47.932;7.810;2023-02-25T14:42:58;5.10;99.90
17423;DHT22;8829;47.932;7.810;2023-02-25T14:45:30;5.40;99.90
17423;DHT22;8829;47.932;7.810;2023-02-25T14:48:03;5.20;99.90
17423;DHT22;8829;47.932;7.810;2023-02-25T14:50:36;5.00;99.90
17423;DHT22;8829;47.932;7.810;2023-02-25T14:53:31;4.90;99.90
17423;DHT22;8829;47.932;7.810;2023-02-25T14:56:31;5.00;99.90
17423;DHT22;8829;47.932;7.810;2023-02-25T14:59:21;5.00;99.90
17423;DHT22;8829;47.932;7.810;2023-02-25T15:02:05;5.10;99.90
17423;DHT22;8829;47.932;7.810;2023-02-25T15:04:58;5.20;99.90
17423;DHT22;8829;47.932;7.810;2023-02-25T15:07:55;5.10;99.90
17423;DHT22;8829;47.932;7.810;2023-02-25T15:10:38;5.10;99.90
17423;DHT22;8829;47.932;7.810;2023-02-25T15:13:18;5.10;99.90
17423;DHT22;8829;47.932;7.810;2023-02-25T15:19:12;4.90;99.90
17423;DHT22;8829;47.932;7.810;2023-02-25T15:21:44;4.80;99.90
17423;DHT22;8829;47.932;7.810;2023-02-25T15:24:35;4.80;99.90
17423;DHT22;8829;47.932;7.810;2023-02-25T15:27:31;4.70;99.90
17423;DHT22;8829;47.932;7.810;2023-02-25T15:29:59;4.70;99.90
17423;DHT22;8829;47.932;7.810;2023-02-25T15:32:27;4.80;99.90
17423;DHT22;8829;47.932;7.810;2023-02-25T15:34:57;4.90;99.90
17423;DHT22;8829;47.932;7.810;2023-02-25T15:37:32;4.70;99.90
17423;DHT22;8829;47.932;7.810;2023-02-25T15:43:39;4.90;99.90
17423;DHT22;8829;47.932;7.810;2023-02-25T15:49:21;5.10;99.90
17423;DHT22;8829;47.932;7.810;2023-02-25T15:51:53;4.80;99.90
17423;DHT22;8829;47.932;7.810;2023-02-25T15:54:46;4.90;99.90
17423;DHT22;8829;47.932;7.810;2023-02-25T15:57:36;4.70;99.90
17423;DHT22;8829;47.932;7.810;2023-02-25T16:03:26;4.70;99.90
17423;DHT22;8829;47.932;7.810;2023-02-25T16:05:58;4.70;99.90
17423;DHT22;8829;47.932;7.810;2023-02-25T16:08:28;4.80;99.90
17423;DHT22;8829;47.932;7.810;2023-02-25T16:10:56;4.80;99.90
17423;DHT22;8829;47.932;7.810;2023-02-25T16:13:28;4.80;99.90
17423;DHT22;8829;47.932;7.810;2023-02-25T16:15:57;4.90;99.90
17423;DHT22;8829;47.932;7.810;2023-02-25T16:18:28;4.80;99.90
17423;DHT22;8829;47.932;7.810;2023-02-25T16:20:58;4.80;99.90
17423;DHT22;8829;47.932;7.810;2023-02-25T16:23:29;4.80;99.90
17423;DHT22;8829;47.932;7.810;2023-02-25T16:26:03;4.80;99.90
17423;DHT22;8829;47.932;7.810;2023-02-25T16:28:42;4.70;99.90
17423;DHT22;8829;47.932;7.810;2023-02-25T16:31:17;4.50;99.90
17423;DHT22;8829;47.932;7.810;2023-02-25T16:33:48;4.60;99.90
17423;DHT22;8829;47.932;7.810;2023-02-25T16:36:25;4.80;99.90
17423;DHT22;8829;47.932;7.810;2023-02-25T16:39:05;4.90;99.90
17423;DHT22;8829;47.932;7.810;2023-02-25T16:41:33;4.60;99.90
17423;DHT22;8829;47.932;7.810;2023-02-25T16:44:01;4.60;99.90
17423;DHT22;8829;47.932;7.810;2023-02-25T16:46:30;4.60;99.90
17423;DHT22;8829;47.932;7.810;2023-02-25T16:48:59;4.50;99.90
17423;DHT22;8829;47.932;7.810;2023-02-25T16:51:30;4.50;99.90
17423;DHT22;8829;47.932;7.810;2023-02-25T16:54:03;4.40;99.90
17423;DHT22;8829;47.932;7.810;2023-02-25T16:56:31;4.40;99.90
17423;DHT22;8829;47.932;7.810;2023-02-25T16:59:03;4.40;99.90
17423;DHT22;8829;47.932;7.810;2023-02-25T17:01:33;4.40;99.90
17423;DHT22;8829;47.932;7.810;2023-02-25T17:04:10;4.40;99.90
17423;DHT22;8829;47.932;7.810;2023-02-25T17:06:37;4.50;99.90